createdAt,value
2018-09-27T00:01:57.020Z,14.16
2018-09-27T00:07:00.571Z,14.21
2018-09-27T00:12:04.229Z,14.21
2018-09-27T00:17:07.799Z,14.17
2018-09-27T00:22:11.373Z,14.26
2018-09-27T00:27:14.896Z,14.36
2018-09-27T00:32:18.435Z,14.47
2018-09-27T00:37:22.033Z,14.61
2018-09-27T00:42:25.598Z,14.63
2018-09-27T00:47:29.171Z,14.66
2018-09-27T00:52:32.766Z,14.74
2018-09-27T00:57:36.296Z,14.77
2018-09-27T01:02:39.833Z,14.79
2018-09-27T01:07:43.337Z,14.83
2018-09-27T01:12:46.969Z,14.84
2018-09-27T01:17:50.481Z,14.86
2018-09-27T01:22:54.015Z,14.82
2018-09-27T01:27:57.619Z,14.80
2018-09-27T01:33:03.280Z,14.86
2018-09-27T01:38:07.070Z,14.88
2018-09-27T01:43:10.735Z,14.86
2018-09-27T01:48:14.320Z,14.88
2018-09-27T01:53:17.923Z,14.88
2018-09-27T01:58:21.606Z,14.85
2018-09-27T02:03:25.193Z,14.89
2018-09-27T02:08:28.852Z,14.75
2018-09-27T02:13:32.518Z,14.67
2018-09-27T02:18:36.107Z,14.74
2018-09-27T02:23:39.714Z,14.64
2018-09-27T02:28:43.233Z,14.73
2018-09-27T02:33:46.903Z,14.71
2018-09-27T02:38:50.540Z,14.68
2018-09-27T02:43:54.178Z,14.62
2018-09-27T02:48:57.854Z,14.64
2018-09-27T02:54:01.535Z,14.63
2018-09-27T02:59:05.071Z,14.57
2018-09-27T03:04:08.904Z,14.68
2018-09-27T03:09:13.417Z,14.70
2018-09-27T03:14:16.988Z,14.61
2018-09-27T03:19:20.532Z,14.63
2018-09-27T03:24:24.184Z,14.62
2018-09-27T03:29:27.780Z,14.53
2018-09-27T03:34:31.432Z,14.49
2018-09-27T03:39:35.038Z,14.46
2018-09-27T03:44:38.701Z,14.44
2018-09-27T03:49:42.299Z,14.42
2018-09-27T03:54:45.929Z,14.33
2018-09-27T03:59:49.560Z,14.34
2018-09-27T04:04:53.211Z,14.29
2018-09-27T04:09:56.783Z,14.30
2018-09-27T04:15:00.374Z,14.25
2018-09-27T04:20:03.938Z,14.24
2018-09-27T04:25:07.583Z,14.19
2018-09-27T04:30:11.558Z,14.21
2018-09-27T04:35:15.187Z,14.23
2018-09-27T04:40:29.800Z,14.25
2018-09-27T04:45:33.393Z,14.25
2018-09-27T04:50:36.954Z,14.24
2018-09-27T04:55:40.547Z,14.27
2018-09-27T05:00:44.386Z,14.26
2018-09-27T05:05:47.955Z,14.27
2018-09-27T05:10:51.583Z,14.32
2018-09-27T05:15:55.339Z,14.32
2018-09-27T05:20:58.893Z,14.29
2018-09-27T05:26:02.617Z,14.35
2018-09-27T05:31:06.217Z,14.40
2018-09-27T05:36:09.798Z,14.57
2018-09-27T05:41:13.418Z,14.64
2018-09-27T05:46:17.035Z,14.67
2018-09-27T05:51:20.578Z,14.64
2018-09-27T05:56:24.151Z,14.60
2018-09-27T06:01:27.816Z,14.68
2018-09-27T06:06:31.410Z,14.68
2018-09-27T06:11:35.077Z,14.70
2018-09-27T06:16:39.849Z,14.79
2018-09-27T06:21:43.415Z,14.79
2018-09-27T06:26:47.060Z,14.73
2018-09-27T06:31:50.720Z,14.65
2018-09-27T06:36:54.366Z,14.77
2018-09-27T06:41:57.990Z,14.79
2018-09-27T06:47:01.507Z,14.80
2018-09-27T06:52:05.097Z,14.84
2018-09-27T06:57:08.691Z,14.99
2018-09-27T07:02:13.854Z,14.99
2018-09-27T07:07:17.596Z,15.10
2018-09-27T07:12:21.295Z,15.28
2018-09-27T07:17:24.762Z,15.49
2018-09-27T07:22:28.392Z,15.60
2018-09-27T07:27:31.984Z,15.76
2018-09-27T07:32:35.628Z,16.17
2018-09-27T07:37:39.240Z,16.35
2018-09-27T07:42:42.900Z,16.61
2018-09-27T07:47:46.520Z,16.72
2018-09-27T07:52:50.054Z,16.81
2018-09-27T07:57:53.692Z,16.87
2018-09-27T08:02:57.355Z,17.10
2018-09-27T08:08:00.773Z,17.21
2018-09-27T08:13:04.354Z,17.36
2018-09-27T08:18:08.040Z,17.53
2018-09-27T08:23:11.834Z,17.67
2018-09-27T08:28:15.457Z,17.75
2018-09-27T08:33:19.112Z,17.85
2018-09-27T08:38:22.693Z,17.97
2018-09-27T08:43:26.382Z,18.05
2018-09-27T08:48:29.986Z,18.16
2018-09-27T08:53:33.684Z,18.22
2018-09-27T08:58:37.309Z,18.36
2018-09-27T09:03:43.640Z,18.48
2018-09-27T09:08:48.618Z,18.67
2018-09-27T09:13:52.751Z,18.85
2018-09-27T09:18:56.727Z,19.04
2018-09-27T09:24:06.294Z,19.17
2018-09-27T09:29:10.929Z,19.25
2018-09-27T09:34:14.607Z,19.37
2018-09-27T09:39:18.433Z,19.50
2018-09-27T09:44:22.084Z,19.63
2018-09-27T09:49:25.749Z,19.70
2018-09-27T09:54:29.432Z,19.81
2018-09-27T09:59:32.977Z,19.86
2018-09-27T10:04:36.611Z,20.06
2018-09-27T10:09:40.306Z,20.11
2018-09-27T10:14:45.304Z,20.30
2018-09-27T10:19:50.326Z,20.38
2018-09-27T10:24:54.114Z,20.49
2018-09-27T10:30:02.349Z,20.58
2018-09-27T10:35:06.906Z,20.75
2018-09-27T10:40:10.638Z,20.79
2018-09-27T10:45:14.284Z,20.86
2018-09-27T10:50:17.883Z,21.08
2018-09-27T10:55:21.595Z,21.20
2018-09-27T11:00:27.225Z,21.33
2018-09-27T11:05:30.873Z,21.38
2018-09-27T11:10:39.318Z,21.45
2018-09-27T11:15:48.926Z,21.49
2018-09-27T11:20:52.492Z,21.69
2018-09-27T11:25:56.144Z,21.76
2018-09-27T11:31:04.980Z,21.82
2018-09-27T11:36:08.620Z,21.83
2018-09-27T11:41:12.352Z,21.88
2018-09-27T11:46:15.963Z,21.90
2018-09-27T11:51:19.697Z,22.14
2018-09-27T11:56:23.218Z,22.30
2018-09-27T12:01:27.016Z,22.26
2018-09-27T12:06:30.720Z,22.24
2018-09-27T12:11:35.046Z,22.40
2018-09-27T12:16:38.758Z,22.39
2018-09-27T12:21:42.627Z,22.48
2018-09-27T12:26:46.508Z,22.45
2018-09-27T12:31:54.966Z,22.65
2018-09-27T12:36:58.640Z,22.69
2018-09-27T12:42:02.559Z,22.54
2018-09-27T12:47:06.228Z,22.74
2018-09-27T12:52:10.408Z,22.91
2018-09-27T12:57:13.755Z,22.91
2018-09-27T13:02:17.590Z,22.94
2018-09-27T13:07:21.489Z,23.00
2018-09-27T13:12:25.563Z,23.07
2018-09-27T13:17:29.280Z,23.14
2018-09-27T13:22:32.801Z,23.12
2018-09-27T13:27:36.470Z,23.13
2018-09-27T13:32:40.349Z,23.14
2018-09-27T13:37:44.018Z,23.06
2018-09-27T13:42:47.709Z,23.07
2018-09-27T13:47:51.424Z,23.19
2018-09-27T13:52:55.071Z,23.22
2018-09-27T13:57:58.629Z,23.33
2018-09-27T14:03:02.304Z,23.35
2018-09-27T14:08:05.921Z,23.37
2018-09-27T14:13:09.634Z,23.39
2018-09-27T14:18:13.189Z,23.40
2018-09-27T14:23:16.841Z,23.41
2018-09-27T14:28:20.464Z,23.43
2018-09-27T14:33:25.365Z,23.45
2018-09-27T14:38:29.134Z,23.38
2018-09-27T14:43:32.758Z,23.40
2018-09-27T14:48:36.523Z,23.51
2018-09-27T14:53:40.192Z,23.46
2018-09-27T14:58:43.957Z,23.41
2018-09-27T15:03:47.621Z,23.38
2018-09-27T15:08:51.274Z,23.36
2018-09-27T15:13:56.152Z,23.27
2018-09-27T15:19:00.075Z,23.41
2018-09-27T15:24:03.891Z,23.46
2018-09-27T15:29:07.531Z,23.42
2018-09-27T15:34:11.470Z,23.34
2018-09-27T15:39:15.530Z,23.28
2018-09-27T15:44:19.228Z,23.29
2018-09-27T15:49:22.903Z,23.15
2018-09-27T15:54:26.611Z,23.15
2018-09-27T15:59:30.313Z,23.03
2018-09-27T16:04:33.963Z,22.88
2018-09-27T16:09:37.615Z,22.83
2018-09-27T16:14:41.258Z,22.77
2018-09-27T16:19:44.862Z,22.63
2018-09-27T16:24:48.430Z,22.43
2018-09-27T16:29:55.299Z,22.23
2018-09-27T16:34:59.171Z,22.00
2018-09-27T16:40:02.798Z,21.54
2018-09-27T16:45:06.706Z,21.07
2018-09-27T16:50:10.324Z,20.51
2018-09-27T16:55:14.035Z,20.00
2018-09-27T17:00:28.787Z,19.61
2018-09-27T17:05:32.391Z,19.22
2018-09-27T17:10:36.020Z,18.74
2018-09-27T17:15:39.617Z,18.24
2018-09-27T17:20:43.209Z,18.02
2018-09-27T17:25:46.749Z,17.57
2018-09-27T17:30:50.715Z,17.23
2018-09-27T17:35:54.330Z,16.87
2018-09-27T17:40:57.935Z,16.69
2018-09-27T17:46:03.281Z,16.54
2018-09-27T17:51:06.893Z,16.32
2018-09-27T17:56:11.295Z,16.15
2018-09-27T18:01:14.997Z,16.01
2018-09-27T18:06:18.631Z,15.89
2018-09-27T18:11:22.218Z,15.68
2018-09-27T18:16:25.938Z,15.55
2018-09-27T18:21:29.473Z,15.50
2018-09-27T18:26:33.141Z,15.42
2018-09-27T18:31:36.778Z,15.25
2018-09-27T18:36:40.383Z,15.24
2018-09-27T18:41:44.098Z,15.16
2018-09-27T18:46:47.729Z,15.08
2018-09-27T18:51:51.289Z,14.95
2018-09-27T18:56:54.943Z,14.83
2018-09-27T19:01:58.631Z,14.77
2018-09-27T19:07:02.359Z,14.51
2018-09-27T19:12:06.105Z,14.41
2018-09-27T19:17:09.768Z,14.37
2018-09-27T19:22:20.096Z,14.29
2018-09-27T19:27:23.703Z,14.16
2018-09-27T19:32:27.231Z,14.13
2018-09-27T19:37:30.828Z,14.03
2018-09-27T19:42:34.448Z,13.98
2018-09-27T19:47:38.096Z,13.84
2018-09-27T19:52:42.025Z,13.68
2018-09-27T19:57:45.656Z,13.59
2018-09-27T20:02:50.620Z,13.51
2018-09-27T20:07:54.421Z,13.40
2018-09-27T20:12:58.423Z,13.31
2018-09-27T20:18:02.419Z,13.28
2018-09-27T20:23:06.100Z,13.16
2018-09-27T20:28:09.756Z,13.11
2018-09-27T20:33:14.087Z,13.03
2018-09-27T20:38:17.695Z,12.94
2018-09-27T20:43:21.503Z,12.82
2018-09-27T20:48:25.097Z,12.79
2018-09-27T20:53:28.656Z,12.74
2018-09-27T20:58:32.477Z,12.63
2018-09-27T21:03:36.150Z,12.63
2018-09-27T21:08:39.703Z,12.53
2018-09-27T21:13:43.369Z,12.45
2018-09-27T21:18:46.851Z,12.35
2018-09-27T21:23:50.584Z,12.31
2018-09-27T21:28:54.265Z,12.12
2018-09-27T21:33:57.801Z,12.05
2018-09-27T21:39:01.376Z,11.99
2018-09-27T21:44:05.084Z,11.90
2018-09-27T21:49:08.637Z,11.83
2018-09-27T21:54:12.228Z,11.81
2018-09-27T21:59:20.415Z,11.74
2018-09-27T22:04:24.486Z,11.66
2018-09-27T22:09:28.234Z,11.63
2018-09-27T22:14:32.060Z,11.63
2018-09-27T22:19:35.630Z,11.51
2018-09-27T22:24:39.185Z,11.47
2018-09-27T22:29:42.981Z,11.32
2018-09-27T22:34:46.595Z,11.24
2018-09-27T22:39:50.126Z,11.15
2018-09-27T22:44:55.992Z,11.04
2018-09-27T22:49:59.678Z,11.02
2018-09-27T22:55:03.240Z,10.96
2018-09-27T23:00:09.144Z,10.92
2018-09-27T23:05:12.925Z,10.68
2018-09-27T23:10:16.532Z,10.55
2018-09-27T23:15:20.262Z,10.62
2018-09-27T23:20:23.829Z,10.65
2018-09-27T23:25:27.575Z,10.61
2018-09-27T23:30:31.361Z,10.56
2018-09-27T23:35:34.883Z,10.55
2018-09-27T23:40:38.480Z,10.60
2018-09-27T23:45:42.013Z,10.57
2018-09-27T23:50:45.586Z,10.58
2018-09-27T23:55:49.188Z,10.47
